N311TY KTOA-KONT
Flight info
| Callsign | N311TY |
|---|---|
| Flight time | 0h 27m |
| Altitude | 5000 |
| Route | LIMBO V64 SLI V8 PDZ |
| Aircraft | C408/M-SDFGRY/S |
Departure
| Time | 2026-05-07 03:01 |
|---|---|
| Airport | Zamperini Field (KTOA) |
Arrival
| Time | 2026-05-07 03:28 |
|---|---|
| Airport | Ontario International Airport (KONT) |
| Time | Latitude | Longitude | Altitude | Speed | Heading |
|---|---|---|---|---|---|
| 2026-05-07 02:40 | 33.80022 | -118.33922 | 108 ft | 0 kts | 220° |
| 2026-05-07 02:49 | 33.80005 | -118.33927 | 109 ft | 8 kts | 158° |
| 2026-05-07 02:50 | 33.79996 | -118.33900 | 108 ft | 0 kts | 54° |
| 2026-05-07 02:56 | 33.79997 | -118.33899 | 109 ft | 0 kts | 54° |
| 2026-05-07 02:56 | 33.80000 | -118.33893 | 108 ft | 4 kts | 60° |
| 2026-05-07 02:56 | 33.79974 | -118.33822 | 113 ft | 12 kts | 140° |
| 2026-05-07 02:57 | 33.79925 | -118.33749 | 108 ft | 8 kts | 89° |
| 2026-05-07 02:57 | 33.79967 | -118.33669 | 104 ft | 11 kts | 96° |
| 2026-05-07 02:57 | 33.79906 | -118.33607 | 108 ft | 18 kts | 129° |
| 2026-05-07 02:57 | 33.79852 | -118.33527 | 108 ft | 0 kts | 131° |
| 2026-05-07 02:58 | 33.79847 | -118.33520 | 108 ft | 6 kts | 127° |
| 2026-05-07 02:58 | 33.79810 | -118.33461 | 108 ft | 6 kts | 127° |
| 2026-05-07 02:58 | 33.79834 | -118.33400 | 106 ft | 15 kts | 32° |
| 2026-05-07 02:58 | 33.79911 | -118.33328 | 102 ft | 3 kts | 39° |
| 2026-05-07 02:59 | 33.79912 | -118.33328 | 102 ft | 0 kts | 39° |
| 2026-05-07 03:00 | 33.79932 | -118.33309 | 101 ft | 11 kts | 37° |
| 2026-05-07 03:00 | 33.79989 | -118.33334 | 101 ft | 13 kts | 307° |
| 2026-05-07 03:00 | 33.80127 | -118.33546 | 97 ft | 62 kts | 308° |
| 2026-05-07 03:00 | 33.80523 | -118.34136 | 128 ft | 113 kts | 308° |
| 2026-05-07 03:01 | 33.81055 | -118.34885 | 508 ft | 120 kts | 305° |
| 2026-05-07 03:01 | 33.81570 | -118.35683 | 1037 ft | 119 kts | 305° |
| 2026-05-07 03:01 | 33.82037 | -118.36408 | 1731 ft | 102 kts | 304° |
| 2026-05-07 03:01 | 33.82467 | -118.37077 | 2213 ft | 101 kts | 307° |
| 2026-05-07 03:02 | 33.82882 | -118.37759 | 2675 ft | 102 kts | 305° |
| 2026-05-07 03:02 | 33.83307 | -118.38451 | 3082 ft | 104 kts | 305° |
| 2026-05-07 03:02 | 33.83731 | -118.39182 | 3454 ft | 109 kts | 301° |
| 2026-05-07 03:02 | 33.83639 | -118.40025 | 3858 ft | 113 kts | 223° |
| 2026-05-07 03:03 | 33.83162 | -118.40283 | 4092 ft | 117 kts | 201° |
| 2026-05-07 03:03 | 33.82517 | -118.40876 | 4413 ft | 119 kts | 224° |
| 2026-05-07 03:03 | 33.81779 | -118.41358 | 4815 ft | 122 kts | 213° |
| 2026-05-07 03:03 | 33.81010 | -118.41879 | 5059 ft | 140 kts | 211° |
| 2026-05-07 03:04 | 33.80039 | -118.42497 | 5078 ft | 170 kts | 209° |
| 2026-05-07 03:04 | 33.78835 | -118.42797 | 5102 ft | 190 kts | 176° |
| 2026-05-07 03:04 | 33.77537 | -118.42304 | 5053 ft | 203 kts | 146° |
| 2026-05-07 03:04 | 33.76594 | -118.41068 | 5012 ft | 201 kts | 115° |
| 2026-05-07 03:05 | 33.76287 | -118.39474 | 5000 ft | 193 kts | 85° |
| 2026-05-07 03:05 | 33.76386 | -118.37888 | 5003 ft | 190 kts | 82° |
| 2026-05-07 03:05 | 33.76489 | -118.36307 | 5000 ft | 190 kts | 82° |
| 2026-05-07 03:05 | 33.76588 | -118.34742 | 5000 ft | 191 kts | 82° |
| 2026-05-07 03:06 | 33.76684 | -118.33150 | 5004 ft | 191 kts | 83° |
| 2026-05-07 03:06 | 33.76779 | -118.31556 | 4996 ft | 191 kts | 83° |
| 2026-05-07 03:06 | 33.76876 | -118.29962 | 4999 ft | 191 kts | 82° |
| 2026-05-07 03:06 | 33.76972 | -118.28373 | 4998 ft | 191 kts | 83° |
| 2026-05-07 03:07 | 33.77068 | -118.26780 | 4999 ft | 191 kts | 84° |
| 2026-05-07 03:07 | 33.77163 | -118.25189 | 4999 ft | 191 kts | 83° |
| 2026-05-07 03:07 | 33.77259 | -118.23586 | 5001 ft | 195 kts | 83° |
| 2026-05-07 03:07 | 33.77357 | -118.21953 | 5002 ft | 197 kts | 83° |
| 2026-05-07 03:08 | 33.77455 | -118.20306 | 4996 ft | 198 kts | 84° |
| 2026-05-07 03:08 | 33.77554 | -118.18653 | 4995 ft | 198 kts | 83° |
| 2026-05-07 03:08 | 33.77651 | -118.17003 | 4994 ft | 198 kts | 82° |
| 2026-05-07 03:08 | 33.77749 | -118.15351 | 4992 ft | 198 kts | 82° |
| 2026-05-07 03:09 | 33.77847 | -118.13700 | 4995 ft | 198 kts | 83° |
| 2026-05-07 03:09 | 33.77944 | -118.12052 | 4979 ft | 198 kts | 83° |
| 2026-05-07 03:09 | 33.78041 | -118.10403 | 4981 ft | 198 kts | 83° |
| 2026-05-07 03:09 | 33.78138 | -118.08761 | 4980 ft | 198 kts | 83° |
| 2026-05-07 03:10 | 33.78234 | -118.07109 | 4982 ft | 198 kts | 83° |
| 2026-05-07 03:10 | 33.78351 | -118.05464 | 4973 ft | 196 kts | 78° |
| 2026-05-07 03:10 | 33.78738 | -118.03929 | 4971 ft | 195 kts | 70° |
| 2026-05-07 03:10 | 33.79142 | -118.02372 | 4973 ft | 195 kts | 70° |
| 2026-05-07 03:11 | 33.79542 | -118.00811 | 4976 ft | 195 kts | 70° |
| 2026-05-07 03:11 | 33.79946 | -117.99255 | 4968 ft | 195 kts | 71° |
| 2026-05-07 03:11 | 33.80350 | -117.97696 | 4972 ft | 195 kts | 71° |
| 2026-05-07 03:11 | 33.80753 | -117.96140 | 4986 ft | 195 kts | 70° |
| 2026-05-07 03:12 | 33.81152 | -117.94595 | 5012 ft | 192 kts | 70° |
| 2026-05-07 03:12 | 33.81549 | -117.93065 | 5003 ft | 191 kts | 71° |
| 2026-05-07 03:12 | 33.81942 | -117.91544 | 5004 ft | 190 kts | 70° |
| 2026-05-07 03:12 | 33.82333 | -117.90030 | 5001 ft | 189 kts | 70° |
| 2026-05-07 03:13 | 33.82725 | -117.88519 | 5000 ft | 189 kts | 71° |
| 2026-05-07 03:13 | 33.83114 | -117.87009 | 5000 ft | 189 kts | 70° |
| 2026-05-07 03:13 | 33.83505 | -117.85495 | 4997 ft | 190 kts | 70° |
| 2026-05-07 03:13 | 33.83896 | -117.83981 | 5002 ft | 189 kts | 71° |
| 2026-05-07 03:14 | 33.84285 | -117.82470 | 5003 ft | 189 kts | 70° |
| 2026-05-07 03:14 | 33.84676 | -117.80955 | 5002 ft | 190 kts | 70° |
| 2026-05-07 03:14 | 33.85450 | -117.77915 | 4977 ft | 190 kts | 72° |
| 2026-05-07 03:15 | 33.85801 | -117.76390 | 5001 ft | 189 kts | 70° |
| 2026-05-07 03:15 | 33.86185 | -117.74875 | 5002 ft | 188 kts | 69° |
| 2026-05-07 03:15 | 33.86595 | -117.73373 | 5003 ft | 189 kts | 71° |
| 2026-05-07 03:15 | 33.86976 | -117.71854 | 5003 ft | 190 kts | 70° |
| 2026-05-07 03:16 | 33.87365 | -117.70332 | 5002 ft | 190 kts | 70° |
| 2026-05-07 03:16 | 33.87755 | -117.68821 | 5003 ft | 189 kts | 71° |
| 2026-05-07 03:16 | 33.88146 | -117.67312 | 5003 ft | 188 kts | 71° |
| 2026-05-07 03:16 | 33.88535 | -117.65805 | 5004 ft | 189 kts | 71° |
| 2026-05-07 03:17 | 33.88925 | -117.64297 | 5003 ft | 189 kts | 71° |
| 2026-05-07 03:17 | 33.89315 | -117.62785 | 5005 ft | 189 kts | 70° |
| 2026-05-07 03:17 | 33.89705 | -117.61273 | 5004 ft | 189 kts | 70° |
| 2026-05-07 03:17 | 33.90094 | -117.59763 | 5004 ft | 189 kts | 71° |
| 2026-05-07 03:18 | 33.90483 | -117.58253 | 5004 ft | 189 kts | 71° |
| 2026-05-07 03:18 | 33.90873 | -117.56739 | 5000 ft | 190 kts | 70° |
| 2026-05-07 03:18 | 33.91263 | -117.55223 | 5000 ft | 189 kts | 71° |
| 2026-05-07 03:18 | 33.91653 | -117.53709 | 5002 ft | 189 kts | 71° |
| 2026-05-07 03:19 | 33.92164 | -117.52266 | 5007 ft | 186 kts | 57° |
| 2026-05-07 03:19 | 33.92809 | -117.50907 | 4993 ft | 188 kts | 59° |
| 2026-05-07 03:19 | 33.93436 | -117.49537 | 4959 ft | 183 kts | 59° |
| 2026-05-07 03:19 | 33.94058 | -117.48183 | 4612 ft | 186 kts | 59° |
| 2026-05-07 03:20 | 33.94690 | -117.46823 | 4304 ft | 187 kts | 59° |
| 2026-05-07 03:20 | 33.95321 | -117.45452 | 4011 ft | 187 kts | 60° |
| 2026-05-07 03:20 | 33.95948 | -117.44086 | 3748 ft | 186 kts | 60° |
| 2026-05-07 03:20 | 33.96575 | -117.42728 | 3470 ft | 185 kts | 60° |
| 2026-05-07 03:21 | 33.97187 | -117.41399 | 3400 ft | 177 kts | 60° |
| 2026-05-07 03:21 | 33.97775 | -117.40122 | 3389 ft | 173 kts | 60° |
| 2026-05-07 03:21 | 33.98358 | -117.38861 | 3393 ft | 173 kts | 60° |
| 2026-05-07 03:21 | 33.98948 | -117.37581 | 3395 ft | 176 kts | 60° |
| 2026-05-07 03:22 | 33.99547 | -117.36288 | 3398 ft | 177 kts | 58° |
| 2026-05-07 03:22 | 34.00399 | -117.35242 | 3392 ft | 177 kts | 32° |
| 2026-05-07 03:22 | 34.01539 | -117.34719 | 3388 ft | 176 kts | 8° |
| 2026-05-07 03:22 | 34.02751 | -117.34815 | 3391 ft | 176 kts | 343° |
| 2026-05-07 03:23 | 34.03848 | -117.35445 | 3394 ft | 175 kts | 330° |
| 2026-05-07 03:23 | 34.04824 | -117.36297 | 3396 ft | 174 kts | 310° |
| 2026-05-07 03:23 | 34.05429 | -117.37553 | 3386 ft | 174 kts | 288° |
| 2026-05-07 03:23 | 34.05572 | -117.38994 | 3388 ft | 174 kts | 267° |
| 2026-05-07 03:24 | 34.05515 | -117.40446 | 3391 ft | 174 kts | 268° |
| 2026-05-07 03:24 | 34.05491 | -117.41904 | 3395 ft | 174 kts | 271° |
| 2026-05-07 03:24 | 34.05500 | -117.43369 | 3321 ft | 178 kts | 270° |
| 2026-05-07 03:24 | 34.05493 | -117.44879 | 3104 ft | 183 kts | 270° |
| 2026-05-07 03:25 | 34.05495 | -117.46419 | 2864 ft | 184 kts | 270° |
| 2026-05-07 03:25 | 34.05497 | -117.47960 | 2633 ft | 183 kts | 271° |
| 2026-05-07 03:25 | 34.05498 | -117.49470 | 2389 ft | 165 kts | 270° |
| 2026-05-07 03:25 | 34.05500 | -117.50660 | 2172 ft | 126 kts | 269° |
| 2026-05-07 03:26 | 34.05493 | -117.51710 | 2022 ft | 135 kts | 268° |
| 2026-05-07 03:26 | 34.05495 | -117.52846 | 1888 ft | 140 kts | 269° |
| 2026-05-07 03:26 | 34.05496 | -117.53981 | 1696 ft | 129 kts | 268° |
| 2026-05-07 03:26 | 34.05495 | -117.55037 | 1499 ft | 123 kts | 268° |
| 2026-05-07 03:27 | 34.05493 | -117.56030 | 1327 ft | 115 kts | 270° |
| 2026-05-07 03:27 | 34.05487 | -117.56991 | 1227 ft | 117 kts | 268° |
| 2026-05-07 03:27 | 34.05500 | -117.57934 | 1040 ft | 110 kts | 268° |
| 2026-05-07 03:27 | 34.05498 | -117.58818 | 929 ft | 100 kts | 266° |
| 2026-05-07 03:28 | 34.05497 | -117.59493 | 928 ft | 62 kts | 269° |
| 2026-05-07 03:28 | 34.05497 | -117.59705 | 931 ft | 19 kts | 268° |
| 2026-05-07 03:28 | 34.05492 | -117.59816 | 929 ft | 11 kts | 248° |
| 2026-05-07 03:28 | 34.05435 | -117.59822 | 931 ft | 12 kts | 134° |
| 2026-05-07 03:29 | 34.05393 | -117.59728 | 932 ft | 15 kts | 99° |
| 2026-05-07 03:29 | 34.05386 | -117.59591 | 932 ft | 19 kts | 91° |
| 2026-05-07 03:29 | 34.05409 | -117.59568 | 931 ft | 6 kts | 297° |
| 2026-05-07 03:29 | 34.05390 | -117.59658 | 932 ft | 16 kts | 257° |
| 2026-05-07 03:30 | 34.05387 | -117.59811 | 931 ft | 20 kts | 269° |
| 2026-05-07 03:30 | 34.05385 | -117.59991 | 932 ft | 22 kts | 270° |
| 2026-05-07 03:30 | 34.05386 | -117.60181 | 931 ft | 23 kts | 270° |
| 2026-05-07 03:30 | 34.05387 | -117.60374 | 929 ft | 23 kts | 270° |
| 2026-05-07 03:31 | 34.05387 | -117.60529 | 930 ft | 17 kts | 270° |
| 2026-05-07 03:31 | 34.05386 | -117.60656 | 932 ft | 15 kts | 269° |
| 2026-05-07 03:31 | 34.05386 | -117.60790 | 932 ft | 17 kts | 270° |
| 2026-05-07 03:31 | 34.05386 | -117.60912 | 932 ft | 8 kts | 268° |
| 2026-05-07 03:32 | 34.05347 | -117.60955 | 937 ft | 10 kts | 181° |
| 2026-05-07 03:32 | 34.05308 | -117.60922 | 933 ft | 0 kts | 95° |